createdAt,value
2022-11-08T00:01:42.935Z,80.97
2022-11-08T00:04:15.142Z,81.24
2022-11-08T00:07:03.413Z,81.18
2022-11-08T00:09:51.292Z,80.91
2022-11-08T00:12:38.483Z,80.38
2022-11-08T00:15:09.188Z,79.98
2022-11-08T00:17:37.942Z,80.08
2022-11-08T00:20:08.913Z,79.67
2022-11-08T00:22:37.547Z,79.36
2022-11-08T00:25:06.943Z,79.22
2022-11-08T00:27:35.576Z,79.04
2022-11-08T00:30:04.985Z,79.00
2022-11-08T00:32:33.651Z,79.06
2022-11-08T00:35:02.336Z,78.95
2022-11-08T00:37:30.956Z,78.78
2022-11-08T00:39:59.625Z,78.74
2022-11-08T00:42:28.303Z,78.61
2022-11-08T00:44:56.979Z,78.71
2022-11-08T00:47:25.617Z,78.80
2022-11-08T00:49:54.242Z,79.16
2022-11-08T00:52:22.930Z,79.20
2022-11-08T00:54:51.642Z,79.14
2022-11-08T00:57:22.365Z,78.85
2022-11-08T00:59:59.866Z,78.71
2022-11-08T01:02:28.537Z,78.98
2022-11-08T01:04:57.254Z,78.82
2022-11-08T01:07:25.919Z,78.76
2022-11-08T01:09:55.034Z,78.87
2022-11-08T01:12:23.749Z,79.09
2022-11-08T01:14:52.629Z,79.06
2022-11-08T01:17:21.259Z,79.34
2022-11-08T01:19:49.927Z,79.35
2022-11-08T01:22:18.605Z,79.32
2022-11-08T01:24:47.170Z,78.99
2022-11-08T01:27:15.776Z,79.25
2022-11-08T01:29:44.354Z,78.89
2022-11-08T01:32:12.973Z,79.25
2022-11-08T01:34:41.626Z,79.42
2022-11-08T01:37:10.268Z,79.29
2022-11-08T01:39:38.944Z,79.30
2022-11-08T01:42:07.620Z,79.05
2022-11-08T01:45:07.378Z,79.19
2022-11-08T01:47:36.019Z,79.13
2022-11-08T01:50:17.141Z,79.05
2022-11-08T01:52:56.024Z,79.15
2022-11-08T01:55:37.014Z,79.32
2022-11-08T01:58:14.697Z,79.41
2022-11-08T02:00:43.863Z,79.13
2022-11-08T02:03:19.009Z,79.26
2022-11-08T02:05:48.635Z,79.23
2022-11-08T02:08:37.944Z,79.36
2022-11-08T02:11:09.209Z,79.35
2022-11-08T02:13:39.440Z,79.35
2022-11-08T02:16:14.055Z,79.44
2022-11-08T02:18:45.637Z,79.15
2022-11-08T02:21:34.236Z,79.13
2022-11-08T02:24:08.632Z,79.12
2022-11-08T02:26:38.572Z,79.25
2022-11-08T02:29:35.062Z,79.22
2022-11-08T02:32:06.416Z,79.17
2022-11-08T02:34:51.556Z,79.29
2022-11-08T02:37:21.873Z,79.39
2022-11-08T02:39:50.527Z,79.58
2022-11-08T02:42:21.245Z,79.51
2022-11-08T02:44:50.124Z,79.42
2022-11-08T02:47:18.754Z,79.49
2022-11-08T02:49:53.247Z,79.30
2022-11-08T02:52:21.839Z,79.43
2022-11-08T02:54:50.430Z,79.44
2022-11-08T02:57:19.037Z,79.41
2022-11-08T02:59:49.295Z,79.29
2022-11-08T03:02:18.044Z,79.30
2022-11-08T03:04:46.749Z,79.43
2022-11-08T03:07:15.270Z,79.40
2022-11-08T03:09:43.864Z,79.19
2022-11-08T03:12:12.536Z,79.52
2022-11-08T03:14:59.087Z,79.66
2022-11-08T03:17:27.818Z,80.01
2022-11-08T03:19:56.491Z,80.40
2022-11-08T03:22:25.592Z,80.52
2022-11-08T03:24:54.232Z,80.39
2022-11-08T03:27:23.701Z,80.52
2022-11-08T03:29:52.329Z,80.45
2022-11-08T03:32:20.946Z,80.02
2022-11-08T03:34:49.587Z,80.14
2022-11-08T03:37:18.324Z,80.51
2022-11-08T03:39:47.007Z,80.27
2022-11-08T03:42:15.629Z,80.45
2022-11-08T03:44:44.329Z,80.86
2022-11-08T03:47:12.971Z,80.64
2022-11-08T03:49:41.635Z,80.50
2022-11-08T03:52:10.237Z,80.47
2022-11-08T03:54:59.118Z,80.41
2022-11-08T03:57:27.753Z,80.19
2022-11-08T03:59:56.333Z,80.42
2022-11-08T04:02:25.160Z,80.70
2022-11-08T04:04:53.842Z,80.77
2022-11-08T04:07:22.553Z,80.89
2022-11-08T04:09:51.274Z,80.57
2022-11-08T04:12:38.330Z,80.61
2022-11-08T04:15:17.044Z,81.05
2022-11-08T04:18:09.986Z,81.23
2022-11-08T04:21:44.049Z,81.05
2022-11-08T04:24:15.658Z,81.34
2022-11-08T04:26:44.343Z,81.52
2022-11-08T04:29:13.437Z,81.41
2022-11-08T04:31:42.552Z,81.09
2022-11-08T04:34:11.254Z,80.85
2022-11-08T04:36:40.145Z,81.13
2022-11-08T04:39:09.133Z,81.18
2022-11-08T04:41:37.951Z,81.21
2022-11-08T04:44:06.662Z,81.50
2022-11-08T04:46:35.324Z,81.66
2022-11-08T04:49:04.062Z,81.51
2022-11-08T04:51:34.024Z,81.67
2022-11-08T04:54:05.282Z,81.56
2022-11-08T04:56:36.333Z,81.67
2022-11-08T04:59:08.348Z,81.91
2022-11-08T05:01:40.986Z,81.27
2022-11-08T05:04:12.523Z,80.95
2022-11-08T05:06:41.120Z,80.82
2022-11-08T05:09:11.921Z,81.42
2022-11-08T05:12:11.122Z,81.40
2022-11-08T05:14:52.400Z,81.20
2022-11-08T05:17:22.944Z,81.08
2022-11-08T05:20:10.369Z,80.96
2022-11-08T05:23:02.212Z,81.01
2022-11-08T05:25:55.916Z,80.88
2022-11-08T05:28:25.334Z,81.08
2022-11-08T05:30:58.181Z,81.01
2022-11-08T05:33:28.497Z,80.84
2022-11-08T05:39:01.529Z,80.68
2022-11-08T05:41:32.517Z,80.96
2022-11-08T05:44:06.715Z,80.66
2022-11-08T05:46:37.772Z,79.72
2022-11-08T05:49:10.075Z,79.74
2022-11-08T05:51:40.449Z,79.61
2022-11-08T05:54:22.808Z,79.87
2022-11-08T05:57:17.742Z,79.44
2022-11-08T06:00:00.243Z,79.48
2022-11-08T06:05:26.536Z,80.04
2022-11-08T06:08:03.333Z,79.39
2022-11-08T06:10:40.036Z,78.96
2022-11-08T06:16:19.502Z,78.66
2022-11-08T06:26:05.725Z,77.27
2022-11-08T06:28:42.079Z,76.99
2022-11-08T06:31:12.046Z,76.33
2022-11-08T06:33:43.157Z,76.10
2022-11-08T06:36:15.937Z,76.45
2022-11-08T06:38:50.315Z,76.71
2022-11-08T06:41:20.838Z,76.65
2022-11-08T06:43:50.907Z,76.33
2022-11-08T06:46:23.344Z,76.22
2022-11-08T06:48:54.488Z,76.10
2022-11-08T06:51:25.282Z,76.61
2022-11-08T06:53:56.424Z,76.32
2022-11-08T06:56:31.951Z,76.39
2022-11-08T06:59:09.699Z,75.89
2022-11-08T07:01:46.809Z,75.65
2022-11-08T07:04:19.624Z,75.81
2022-11-08T07:06:48.988Z,75.72
2022-11-08T07:09:19.087Z,75.23
2022-11-08T07:11:48.753Z,75.19
2022-11-08T07:14:23.904Z,74.82
2022-11-08T07:16:53.970Z,74.67
2022-11-08T07:19:23.615Z,74.41
2022-11-08T07:21:53.777Z,74.06
2022-11-08T07:24:23.505Z,73.63
2022-11-08T07:26:54.166Z,73.90
2022-11-08T07:29:27.590Z,73.99
2022-11-08T07:31:57.942Z,73.90
2022-11-08T07:34:27.656Z,73.13
2022-11-08T07:36:57.196Z,72.82
2022-11-08T07:39:29.501Z,72.72
2022-11-08T07:42:00.894Z,72.84
2022-11-08T07:44:34.838Z,73.28
2022-11-08T07:47:04.252Z,73.28
2022-11-08T07:49:36.122Z,73.17
2022-11-08T07:52:09.123Z,73.46
2022-11-08T07:54:38.841Z,73.47
2022-11-08T07:57:17.988Z,72.89
2022-11-08T08:00:01.400Z,72.03
2022-11-08T08:03:01.822Z,71.77
2022-11-08T08:05:41.268Z,71.29
2022-11-08T08:08:17.615Z,70.59
2022-11-08T08:10:53.098Z,70.17
2022-11-08T08:13:25.389Z,69.42
2022-11-08T08:16:05.608Z,69.65
2022-11-08T08:18:40.365Z,69.85
2022-11-08T08:21:26.403Z,69.77
2022-11-08T08:24:13.595Z,69.82
2022-11-08T08:26:45.874Z,69.57
2022-11-08T08:29:19.973Z,69.30
2022-11-08T08:31:54.346Z,68.98
2022-11-08T08:34:31.323Z,69.46
2022-11-08T08:37:04.181Z,69.39
2022-11-08T08:39:36.904Z,68.58
2022-11-08T08:42:07.793Z,67.39
2022-11-08T08:44:40.084Z,66.53
2022-11-08T08:47:09.091Z,66.72
2022-11-08T08:49:38.985Z,66.14
2022-11-08T08:52:10.537Z,65.78
2022-11-08T08:54:39.813Z,65.66
2022-11-08T08:57:10.710Z,65.60
2022-11-08T09:02:32.697Z,64.68
2022-11-08T09:05:04.569Z,64.14
2022-11-08T09:07:56.649Z,63.73
2022-11-08T09:10:39.437Z,63.95
2022-11-08T09:13:46.281Z,63.34
2022-11-08T09:16:20.762Z,63.01
2022-11-08T09:19:09.396Z,62.87
2022-11-08T09:21:44.077Z,63.41
2022-11-08T09:24:20.777Z,63.16
2022-11-08T09:27:18.791Z,62.94
2022-11-08T09:44:34.404Z,62.76
2022-11-08T09:47:52.920Z,62.45
2022-11-08T09:50:48.743Z,62.47
2022-11-08T09:54:04.412Z,62.09
2022-11-08T09:56:38.646Z,61.92
2022-11-08T09:59:48.005Z,61.55
2022-11-08T10:02:37.000Z,62.12
2022-11-08T10:05:31.831Z,61.98
2022-11-08T10:08:44.775Z,61.91
2022-11-08T10:15:15.790Z,60.69
2022-11-08T10:22:21.078Z,59.27
2022-11-08T10:37:21.581Z,55.83
2022-11-08T10:40:20.991Z,53.52
2022-11-08T10:43:09.607Z,52.48
2022-11-08T10:45:55.219Z,51.88
2022-11-08T10:48:24.981Z,52.86
2022-11-08T10:50:57.802Z,53.20
2022-11-08T10:56:58.445Z,51.80
2022-11-08T11:00:34.627Z,50.25
2022-11-08T11:03:28.971Z,50.36
2022-11-08T11:06:44.841Z,51.32
2022-11-08T11:10:45.669Z,50.24
2022-11-08T13:11:28.362Z,51.42
2022-11-08T13:30:57.812Z,55.00
2022-11-08T16:47:11.392Z,75.23
2022-11-08T16:49:38.809Z,73.50
2022-11-08T16:56:04.536Z,77.55
2022-11-08T17:12:36.826Z,77.00
2022-11-08T17:15:22.635Z,76.60
2022-11-08T17:17:52.887Z,77.35
2022-11-08T17:20:23.394Z,79.14
2022-11-08T17:22:54.257Z,79.65
2022-11-08T17:25:23.532Z,80.27
2022-11-08T17:27:53.112Z,79.33
2022-11-08T17:30:26.546Z,79.51
2022-11-08T17:33:00.994Z,81.12
2022-11-08T17:35:28.476Z,82.08
2022-11-08T17:37:55.761Z,82.10
2022-11-08T17:40:23.103Z,81.93
2022-11-08T17:42:58.899Z,82.45
2022-11-08T17:45:26.661Z,82.49
2022-11-08T17:47:54.259Z,83.15
2022-11-08T17:50:22.044Z,83.56
2022-11-08T17:52:59.529Z,83.51
2022-11-08T17:55:27.308Z,83.30
2022-11-08T17:57:54.983Z,83.49
2022-11-08T18:00:22.698Z,84.08
2022-11-08T18:02:50.369Z,83.75
2022-11-08T18:05:17.660Z,83.86
2022-11-08T18:07:45.283Z,84.03
2022-11-08T18:10:13.512Z,84.61
2022-11-08T18:12:40.918Z,85.09
2022-11-08T18:15:37.802Z,85.40
2022-11-08T18:18:06.289Z,84.64
2022-11-08T18:20:35.213Z,84.31
2022-11-08T18:23:13.507Z,84.09
2022-11-08T18:25:48.873Z,84.19
2022-11-08T18:29:15.918Z,84.43
2022-11-08T18:31:44.399Z,84.00
2022-11-08T18:34:15.439Z,84.78
2022-11-08T18:36:44.038Z,84.96
2022-11-08T18:39:21.469Z,84.96
2022-11-08T18:41:49.574Z,84.75
2022-11-08T18:44:23.453Z,84.72
2022-11-08T18:47:05.213Z,85.12
2022-11-08T18:49:33.223Z,85.15
2022-11-08T18:52:01.853Z,85.46
2022-11-08T18:54:30.557Z,84.76
2022-11-08T18:56:58.588Z,85.22
2022-11-08T18:59:26.567Z,86.00
2022-11-08T19:01:54.160Z,87.09
2022-11-08T19:08:19.889Z,87.04
2022-11-08T19:11:02.666Z,86.08
2022-11-08T19:13:32.929Z,85.79
2022-11-08T19:16:12.804Z,85.28
2022-11-08T19:18:41.849Z,84.83
2022-11-08T19:21:22.462Z,84.59
2022-11-08T19:23:51.455Z,84.38
2022-11-08T19:26:22.282Z,84.07
2022-11-08T19:28:53.262Z,84.55
2022-11-08T19:31:23.785Z,85.05
2022-11-08T19:33:55.948Z,85.82
2022-11-08T19:36:28.047Z,86.15
2022-11-08T19:38:57.442Z,85.61
2022-11-08T19:41:28.812Z,85.49
2022-11-08T19:43:57.282Z,85.47
2022-11-08T19:46:28.566Z,86.40
2022-11-08T19:48:59.429Z,86.85
2022-11-08T19:51:30.728Z,86.95
2022-11-08T19:54:07.974Z,86.86
2022-11-08T19:57:06.619Z,86.88
2022-11-08T19:59:23.968Z,86.77
2022-11-08T20:01:52.096Z,86.54
2022-11-08T20:04:20.196Z,86.28
2022-11-08T20:06:47.581Z,86.15
2022-11-08T20:09:15.170Z,85.72
2022-11-08T20:11:42.424Z,86.47
2022-11-08T20:14:13.229Z,87.80
2022-11-08T20:16:43.163Z,87.43
2022-11-08T20:19:15.850Z,87.83
2022-11-08T20:21:45.550Z,87.63
2022-11-08T20:24:14.115Z,87.29
2022-11-08T20:26:43.003Z,87.13
2022-11-08T20:29:10.789Z,86.81
2022-11-08T20:31:38.811Z,87.30
2022-11-08T20:34:10.018Z,87.45
2022-11-08T20:36:38.307Z,86.78
2022-11-08T20:39:08.209Z,86.43
2022-11-08T20:41:38.277Z,87.13
2022-11-08T20:44:08.592Z,87.19
2022-11-08T20:46:37.398Z,87.06
2022-11-08T20:49:05.628Z,87.38
2022-11-08T20:51:34.066Z,87.35
2022-11-08T20:54:01.831Z,87.45
2022-11-08T20:56:29.691Z,87.34
2022-11-08T20:58:57.126Z,87.23
2022-11-08T21:01:28.736Z,87.70
2022-11-08T21:03:56.346Z,87.60
2022-11-08T21:06:26.349Z,87.37
2022-11-08T21:09:14.437Z,87.39
2022-11-08T21:11:42.992Z,87.73
2022-11-08T21:14:10.261Z,88.32
2022-11-08T21:17:06.698Z,88.55
2022-11-08T21:19:26.017Z,88.55
2022-11-08T21:22:13.351Z,88.54
2022-11-08T21:24:42.694Z,88.94
2022-11-08T21:27:10.572Z,88.95
2022-11-08T21:29:38.459Z,90.58
2022-11-08T21:32:06.527Z,90.70
2022-11-08T21:34:33.970Z,90.38
2022-11-08T21:37:01.238Z,90.42
2022-11-08T21:39:28.515Z,90.48
2022-11-08T21:41:55.851Z,90.48
2022-11-08T21:44:23.194Z,89.94
2022-11-08T21:46:50.597Z,90.03
2022-11-08T21:49:17.996Z,90.58
2022-11-08T21:51:45.327Z,91.08
2022-11-08T21:54:12.675Z,91.68
2022-11-08T21:56:40.124Z,91.84
2022-11-08T21:59:07.538Z,92.62
2022-11-08T22:01:34.942Z,92.21
2022-11-08T22:04:02.418Z,91.90
2022-11-08T22:06:29.870Z,91.80
2022-11-08T22:08:57.478Z,92.08
2022-11-08T22:11:24.859Z,92.13
2022-11-08T22:13:52.276Z,91.65
2022-11-08T22:16:19.652Z,92.06
2022-11-08T22:21:38.069Z,92.33
2022-11-08T22:24:17.797Z,91.78
2022-11-08T22:26:46.244Z,92.34
2022-11-08T22:29:14.019Z,92.61
2022-11-08T22:31:41.753Z,92.47
2022-11-08T22:34:10.446Z,92.93
2022-11-08T22:36:44.906Z,93.43
2022-11-08T22:39:15.718Z,93.24
2022-11-08T22:41:45.097Z,93.47
2022-11-08T22:44:13.566Z,93.60
2022-11-08T22:46:42.106Z,94.20
2022-11-08T22:49:11.255Z,94.69
2022-11-08T22:51:39.543Z,94.54
2022-11-08T22:54:07.415Z,94.48
2022-11-08T22:56:35.536Z,94.53
2022-11-08T22:59:04.041Z,94.35
2022-11-08T23:01:32.164Z,94.49
2022-11-08T23:03:59.838Z,94.36
2022-11-08T23:06:27.312Z,94.82
2022-11-08T23:08:55.194Z,95.05
2022-11-08T23:11:41.703Z,95.25
2022-11-08T23:14:33.745Z,95.28
2022-11-08T23:17:07.419Z,94.73
2022-11-08T23:19:53.531Z,95.04
2022-11-08T23:22:40.781Z,95.56
2022-11-08T23:25:08.697Z,95.65
2022-11-08T23:27:54.618Z,95.75
2022-11-08T23:31:21.260Z,94.85
2022-11-08T23:33:48.807Z,94.10
2022-11-08T23:36:16.490Z,94.13
2022-11-08T23:38:43.942Z,94.54
2022-11-08T23:41:30.138Z,95.04
2022-11-08T23:44:16.224Z,95.82
2022-11-08T23:46:43.811Z,96.41
2022-11-08T23:49:11.150Z,96.71
2022-11-08T23:51:38.630Z,96.03
2022-11-08T23:54:05.957Z,96.08
2022-11-08T23:56:33.497Z,95.49
2022-11-08T23:59:00.939Z,94.73
